createdAt,value
2022-12-02T00:00:53.309Z,976.35
2022-12-02T00:01:53.270Z,976.30
2022-12-02T00:02:53.278Z,976.29
2022-12-02T00:03:53.337Z,976.26
2022-12-02T00:04:53.234Z,976.31
2022-12-02T00:05:53.235Z,976.25
2022-12-02T00:06:53.178Z,976.22
2022-12-02T00:07:57.726Z,976.26
2022-12-02T00:08:54.143Z,976.24
2022-12-02T00:09:53.125Z,976.24
2022-12-02T00:10:53.247Z,976.17
2022-12-02T00:11:53.088Z,976.18
2022-12-02T00:12:53.088Z,976.19
2022-12-02T00:13:53.057Z,976.19
2022-12-02T00:14:53.185Z,976.21
2022-12-02T00:15:53.115Z,976.23
2022-12-02T00:16:53.099Z,976.19
2022-12-02T00:17:52.984Z,976.19
2022-12-02T00:18:52.976Z,976.21
2022-12-02T00:19:52.953Z,976.14
2022-12-02T00:20:52.980Z,976.20
2022-12-02T00:21:52.936Z,976.16
2022-12-02T00:22:52.904Z,976.13
2022-12-02T00:23:52.887Z,976.13
2022-12-02T00:24:53.374Z,976.15
2022-12-02T00:25:52.893Z,976.07
2022-12-02T00:26:52.851Z,976.11
2022-12-02T00:27:52.808Z,976.10
2022-12-02T00:28:52.790Z,976.07
2022-12-02T00:29:52.767Z,976.00
2022-12-02T00:30:52.792Z,976.14
2022-12-02T00:31:52.856Z,976.05
2022-12-02T00:32:52.728Z,976.09
2022-12-02T00:33:52.698Z,976.07
2022-12-02T00:34:52.957Z,976.05
2022-12-02T00:35:52.706Z,976.11
2022-12-02T00:36:52.650Z,976.09
2022-12-02T00:37:52.655Z,976.08
2022-12-02T00:38:52.623Z,976.05
2022-12-02T00:39:52.604Z,976.08
2022-12-02T00:40:52.616Z,976.06
2022-12-02T00:41:52.569Z,976.10
2022-12-02T00:42:52.568Z,976.04
2022-12-02T00:43:52.541Z,976.00
2022-12-02T00:44:52.822Z,976.00
2022-12-02T00:45:52.604Z,976.02
2022-12-02T00:46:52.489Z,976.00
2022-12-02T00:47:52.476Z,975.97
2022-12-02T00:48:52.459Z,976.01
2022-12-02T00:49:52.432Z,975.97
2022-12-02T00:50:52.453Z,976.01
2022-12-02T00:51:52.401Z,975.92
2022-12-02T00:52:52.384Z,975.99
2022-12-02T00:53:52.374Z,975.96
2022-12-02T00:54:52.595Z,975.91
2022-12-02T00:55:52.400Z,975.97
2022-12-02T00:56:52.326Z,975.91
2022-12-02T00:57:52.324Z,975.89
2022-12-02T00:58:52.287Z,975.87
2022-12-02T00:59:52.265Z,975.91
2022-12-02T01:00:52.343Z,975.89
2022-12-02T01:01:52.293Z,975.83
2022-12-02T01:02:52.221Z,975.82
2022-12-02T01:03:52.210Z,975.82
2022-12-02T01:04:52.519Z,975.79
2022-12-02T01:05:52.217Z,975.84
2022-12-02T01:06:52.147Z,975.83
2022-12-02T01:07:52.194Z,975.81
2022-12-02T01:08:52.104Z,975.76
2022-12-02T01:09:52.102Z,975.82
2022-12-02T01:10:52.109Z,975.79
2022-12-02T01:11:52.064Z,975.80
2022-12-02T01:12:52.040Z,975.79
2022-12-02T01:13:52.040Z,975.82
2022-12-02T01:14:52.323Z,975.74
2022-12-02T01:15:52.040Z,975.81
2022-12-02T01:16:52.062Z,975.84
2022-12-02T01:17:51.959Z,975.79
2022-12-02T01:18:53.028Z,975.82
2022-12-02T01:19:51.918Z,975.78
2022-12-02T01:20:51.934Z,975.82
2022-12-02T01:21:51.888Z,975.75
2022-12-02T01:22:51.881Z,975.79
2022-12-02T01:23:51.857Z,975.82
2022-12-02T01:24:52.086Z,975.81
2022-12-02T01:25:51.853Z,975.83
2022-12-02T01:26:51.807Z,975.87
2022-12-02T01:27:51.771Z,975.82
2022-12-02T01:28:51.771Z,975.81
2022-12-02T01:29:51.741Z,975.87
2022-12-02T01:30:51.751Z,975.85
2022-12-02T01:31:51.779Z,975.82
2022-12-02T01:32:51.688Z,975.87
2022-12-02T01:33:51.670Z,975.82
2022-12-02T01:34:51.824Z,975.88
2022-12-02T01:35:51.669Z,975.89
2022-12-02T01:36:51.620Z,975.91
2022-12-02T01:37:51.609Z,975.86
2022-12-02T01:38:51.580Z,975.80
2022-12-02T01:39:51.586Z,975.87
2022-12-02T01:40:51.588Z,975.85
2022-12-02T01:41:51.534Z,975.83
2022-12-02T01:42:51.514Z,975.83
2022-12-02T01:43:51.501Z,975.85
2022-12-02T01:44:51.839Z,975.84
2022-12-02T01:45:51.594Z,975.88
2022-12-02T01:46:51.437Z,975.86
2022-12-02T01:47:51.449Z,975.85
2022-12-02T01:48:51.402Z,975.86
2022-12-02T01:49:51.397Z,975.86
2022-12-02T01:50:51.413Z,975.85
2022-12-02T01:51:51.364Z,975.85
2022-12-02T01:52:56.380Z,975.87
2022-12-02T01:53:53.319Z,975.85
2022-12-02T01:54:51.644Z,975.85
2022-12-02T01:55:51.331Z,975.87
2022-12-02T01:56:51.267Z,975.83
2022-12-02T01:57:51.245Z,975.86
2022-12-02T01:58:51.247Z,975.81
2022-12-02T01:59:51.219Z,975.81
2022-12-02T02:00:51.262Z,975.83
2022-12-02T02:01:51.206Z,975.88
2022-12-02T02:02:51.186Z,975.85
2022-12-02T02:03:51.147Z,975.83
2022-12-02T02:04:52.385Z,975.80
2022-12-02T02:05:51.174Z,975.78
2022-12-02T02:06:51.099Z,975.78
2022-12-02T02:07:51.145Z,975.73
2022-12-02T02:08:51.060Z,975.82
2022-12-02T02:09:51.039Z,975.80
2022-12-02T02:10:51.053Z,975.74
2022-12-02T02:11:51.007Z,975.80
2022-12-02T02:12:50.988Z,975.76
2022-12-02T02:13:50.986Z,975.81
2022-12-02T02:14:51.140Z,975.78
2022-12-02T02:15:50.963Z,975.77
2022-12-02T02:16:50.993Z,975.77
2022-12-02T02:17:50.898Z,975.74
2022-12-02T02:18:50.883Z,975.73
2022-12-02T02:19:50.861Z,975.72
2022-12-02T02:20:50.892Z,975.73
2022-12-02T02:21:50.841Z,975.70
2022-12-02T02:22:50.815Z,975.68
2022-12-02T02:23:50.810Z,975.65
2022-12-02T02:24:51.220Z,975.67
2022-12-02T02:25:50.786Z,975.71
2022-12-02T02:26:50.736Z,975.62
2022-12-02T02:27:50.732Z,975.66
2022-12-02T02:28:50.706Z,975.66
2022-12-02T02:29:50.696Z,975.68
2022-12-02T02:30:50.782Z,975.65
2022-12-02T02:31:50.654Z,975.68
2022-12-02T02:32:50.633Z,975.68
2022-12-02T02:33:50.625Z,975.68
2022-12-02T02:34:50.793Z,975.69
2022-12-02T02:35:50.628Z,975.58
2022-12-02T02:36:50.562Z,975.62
2022-12-02T02:37:50.549Z,975.62
2022-12-02T02:38:50.530Z,975.53
2022-12-02T02:39:50.516Z,975.63
2022-12-02T02:40:50.560Z,975.58
2022-12-02T02:41:50.528Z,975.59
2022-12-02T02:42:51.312Z,975.56
2022-12-02T02:43:50.440Z,975.61
2022-12-02T02:44:50.646Z,975.60
2022-12-02T02:45:50.540Z,975.56
2022-12-02T02:46:50.400Z,975.59
2022-12-02T02:47:50.365Z,975.56
2022-12-02T02:48:50.356Z,975.53
2022-12-02T02:49:50.346Z,975.61
2022-12-02T02:50:50.347Z,975.60
2022-12-02T02:51:50.299Z,975.55
2022-12-02T02:52:50.288Z,975.54
2022-12-02T02:53:50.266Z,975.51
2022-12-02T02:54:50.419Z,975.57
2022-12-02T02:55:50.260Z,975.55
2022-12-02T02:56:50.271Z,975.50
2022-12-02T02:57:50.214Z,975.56
2022-12-02T02:58:50.181Z,975.52
2022-12-02T02:59:50.180Z,975.51
2022-12-02T03:00:50.188Z,975.50
2022-12-02T03:01:50.169Z,975.51
2022-12-02T03:02:50.153Z,975.49
2022-12-02T03:03:50.106Z,975.48
2022-12-02T03:04:50.298Z,975.48
2022-12-02T03:05:50.089Z,975.50
2022-12-02T03:06:50.050Z,975.46
2022-12-02T03:07:50.069Z,975.48
2022-12-02T03:08:50.020Z,975.47
2022-12-02T03:09:49.996Z,975.50
2022-12-02T03:10:50.006Z,975.44
2022-12-02T03:11:49.960Z,975.40
2022-12-02T03:12:49.958Z,975.46
2022-12-02T03:13:49.930Z,975.45
2022-12-02T03:14:50.315Z,975.43
2022-12-02T03:15:49.931Z,975.40
2022-12-02T03:16:50.039Z,975.42
2022-12-02T03:17:49.854Z,975.38
2022-12-02T03:18:49.840Z,975.41
2022-12-02T03:19:49.832Z,975.34
2022-12-02T03:20:49.834Z,975.36
2022-12-02T03:21:49.788Z,975.38
2022-12-02T03:22:49.841Z,975.41
2022-12-02T03:23:49.752Z,975.34
2022-12-02T03:24:49.964Z,975.32
2022-12-02T03:25:49.754Z,975.37
2022-12-02T03:26:49.728Z,975.34
2022-12-02T03:27:49.681Z,975.37
2022-12-02T03:28:49.668Z,975.33
2022-12-02T03:29:49.679Z,975.30
2022-12-02T03:30:49.719Z,975.24
2022-12-02T03:31:49.641Z,975.33
2022-12-02T03:32:49.603Z,975.33
2022-12-02T03:33:49.589Z,975.33
2022-12-02T03:34:49.994Z,975.31
2022-12-02T03:35:49.616Z,975.26
2022-12-02T03:36:49.575Z,975.28
2022-12-02T03:37:49.522Z,975.26
2022-12-02T03:38:49.499Z,975.28
2022-12-02T03:39:49.491Z,975.28
2022-12-02T03:40:49.497Z,975.28
2022-12-02T03:41:49.453Z,975.26
2022-12-02T03:42:49.478Z,975.35
2022-12-02T03:43:49.407Z,975.27
2022-12-02T03:44:49.718Z,975.29
2022-12-02T03:45:49.395Z,975.25
2022-12-02T03:46:49.443Z,975.29
2022-12-02T03:47:49.335Z,975.21
2022-12-02T03:48:49.314Z,975.22
2022-12-02T03:49:49.307Z,975.25
2022-12-02T03:50:49.288Z,975.23
2022-12-02T03:51:49.359Z,975.26
2022-12-02T03:52:49.261Z,975.25
2022-12-02T03:53:49.229Z,975.24
2022-12-02T03:54:54.715Z,975.22
2022-12-02T03:55:51.204Z,975.17
2022-12-02T03:56:49.214Z,975.17
2022-12-02T03:57:49.163Z,975.17
2022-12-02T03:58:49.157Z,975.21
2022-12-02T03:59:49.129Z,975.20
2022-12-02T04:00:50.111Z,975.16
2022-12-02T04:01:49.156Z,975.15
2022-12-02T04:02:49.156Z,975.18
2022-12-02T04:03:49.073Z,975.13
2022-12-02T04:04:49.281Z,975.16
2022-12-02T04:05:49.803Z,975.18
2022-12-02T04:06:50.048Z,975.11
2022-12-02T04:07:49.056Z,975.11
2022-12-02T04:08:48.975Z,975.06
2022-12-02T04:09:48.973Z,975.12
2022-12-02T04:10:48.939Z,975.10
2022-12-02T04:11:48.957Z,975.11
2022-12-02T04:12:48.907Z,975.11
2022-12-02T04:13:48.894Z,975.08
2022-12-02T04:14:49.282Z,975.07
2022-12-02T04:15:48.908Z,975.03
2022-12-02T04:16:48.882Z,975.01
2022-12-02T04:17:48.822Z,975.07
2022-12-02T04:18:48.791Z,975.03
2022-12-02T04:19:48.791Z,974.99
2022-12-02T04:20:48.759Z,974.96
2022-12-02T04:21:48.772Z,974.93
2022-12-02T04:22:48.733Z,974.89
2022-12-02T04:23:48.716Z,974.95
2022-12-02T04:24:48.871Z,974.94
2022-12-02T04:25:48.674Z,974.88
2022-12-02T04:26:48.686Z,974.89
2022-12-02T04:27:48.641Z,974.92
2022-12-02T04:28:48.643Z,974.93
2022-12-02T04:29:48.606Z,974.90
2022-12-02T04:30:48.669Z,974.88
2022-12-02T04:31:48.611Z,974.84
2022-12-02T04:32:48.569Z,974.89
2022-12-02T04:33:48.553Z,974.94
2022-12-02T04:34:48.755Z,974.86
2022-12-02T04:35:48.510Z,974.84
2022-12-02T04:36:48.516Z,974.87
2022-12-02T04:37:48.474Z,974.83
2022-12-02T04:38:48.454Z,974.83
2022-12-02T04:39:48.449Z,974.86
2022-12-02T04:40:48.416Z,974.86
2022-12-02T04:41:48.438Z,974.87
2022-12-02T04:42:48.381Z,974.84
2022-12-02T04:43:48.365Z,974.84
2022-12-02T04:44:48.794Z,974.92
2022-12-02T04:45:48.337Z,974.84
2022-12-02T04:46:49.382Z,974.85
2022-12-02T04:47:48.310Z,974.78
2022-12-02T04:48:48.282Z,974.89
2022-12-02T04:49:48.271Z,974.83
2022-12-02T04:50:48.243Z,974.80
2022-12-02T04:51:48.260Z,974.81
2022-12-02T04:52:48.211Z,974.79
2022-12-02T04:53:48.197Z,974.80
2022-12-02T04:54:48.223Z,974.81
2022-12-02T04:55:48.166Z,974.71
2022-12-02T04:56:48.172Z,974.77
2022-12-02T04:57:48.126Z,974.79
2022-12-02T04:58:48.107Z,974.74
2022-12-02T04:59:48.101Z,974.79
2022-12-02T05:00:48.087Z,974.75
2022-12-02T05:01:48.180Z,974.79
2022-12-02T05:02:48.114Z,974.80
2022-12-02T05:03:48.062Z,974.70
2022-12-02T05:04:48.020Z,974.75
2022-12-02T05:05:47.999Z,974.70
2022-12-02T05:06:48.015Z,974.70
2022-12-02T05:07:48.015Z,974.81
2022-12-02T05:08:47.955Z,974.74
2022-12-02T05:09:47.926Z,974.74
2022-12-02T05:10:47.908Z,974.71
2022-12-02T05:11:47.917Z,974.66
2022-12-02T05:12:47.878Z,974.77
2022-12-02T05:13:47.855Z,974.78
2022-12-02T05:14:47.854Z,974.73
2022-12-02T05:15:47.910Z,974.76
2022-12-02T05:16:48.839Z,974.66
2022-12-02T05:17:47.806Z,974.62
2022-12-02T05:18:47.770Z,974.69
2022-12-02T05:19:47.774Z,974.62
2022-12-02T05:20:47.742Z,974.66
2022-12-02T05:21:47.770Z,974.76
2022-12-02T05:22:47.709Z,974.71
2022-12-02T05:23:47.688Z,974.55
2022-12-02T05:24:47.663Z,974.84
2022-12-02T05:25:47.668Z,974.80
2022-12-02T05:26:47.666Z,974.86
2022-12-02T05:27:47.611Z,974.80
2022-12-02T05:28:48.598Z,974.74
2022-12-02T05:29:47.585Z,974.75
2022-12-02T05:30:47.560Z,974.70
2022-12-02T05:31:47.644Z,974.73
2022-12-02T05:32:47.537Z,974.75
2022-12-02T05:33:47.516Z,974.72
2022-12-02T05:34:47.522Z,974.76
2022-12-02T05:35:47.476Z,974.79
2022-12-02T05:36:47.499Z,974.73
2022-12-02T05:37:47.440Z,974.70
2022-12-02T05:38:47.434Z,974.77
2022-12-02T05:39:47.410Z,974.73
2022-12-02T05:40:47.393Z,974.72
2022-12-02T05:41:47.400Z,974.73
2022-12-02T05:42:47.355Z,974.72
2022-12-02T05:43:47.337Z,974.78
2022-12-02T05:44:47.319Z,974.75
2022-12-02T05:45:47.294Z,974.81
2022-12-02T05:46:47.387Z,974.73
2022-12-02T05:47:47.299Z,974.77
2022-12-02T05:48:47.254Z,974.76
2022-12-02T05:49:47.249Z,974.77
2022-12-02T05:50:47.224Z,974.79
2022-12-02T05:51:49.795Z,974.76
2022-12-02T05:52:48.208Z,974.85
2022-12-02T05:53:47.159Z,974.79
2022-12-02T05:54:47.139Z,974.80
2022-12-02T05:55:47.137Z,974.73
2022-12-02T05:56:47.108Z,974.80
2022-12-02T05:57:47.126Z,974.76
2022-12-02T05:58:47.071Z,974.75
2022-12-02T05:59:47.064Z,974.90
2022-12-02T06:00:47.044Z,974.85
2022-12-02T06:01:47.070Z,974.84
2022-12-02T06:02:47.126Z,974.80
2022-12-02T06:03:46.995Z,974.81
2022-12-02T06:04:46.971Z,974.80
2022-12-02T06:05:46.954Z,974.92
2022-12-02T06:06:46.947Z,974.87
2022-12-02T06:07:47.002Z,974.83
2022-12-02T06:08:46.898Z,974.89
2022-12-02T06:09:46.885Z,974.88
2022-12-02T06:10:46.898Z,974.88
2022-12-02T06:11:46.849Z,974.91
2022-12-02T06:12:46.870Z,974.87
2022-12-02T06:13:46.815Z,974.88
2022-12-02T06:14:46.808Z,974.86
2022-12-02T06:15:46.822Z,974.89
2022-12-02T06:16:46.823Z,974.83
2022-12-02T06:17:46.776Z,974.83
2022-12-02T06:18:46.735Z,974.93
2022-12-02T06:19:46.711Z,974.93
2022-12-02T06:20:46.697Z,974.92
2022-12-02T06:21:46.675Z,974.88
2022-12-02T06:22:46.722Z,974.92
2022-12-02T06:23:46.639Z,974.90
2022-12-02T06:24:46.634Z,974.90
2022-12-02T06:25:46.618Z,974.87
2022-12-02T06:26:46.594Z,974.89
2022-12-02T06:27:46.608Z,974.86
2022-12-02T06:28:46.575Z,974.93
2022-12-02T06:29:46.551Z,974.87
2022-12-02T06:30:46.528Z,974.90
2022-12-02T06:31:46.564Z,974.94
2022-12-02T06:32:46.522Z,974.96
2022-12-02T06:33:46.474Z,974.94
2022-12-02T06:34:46.465Z,974.98
2022-12-02T06:35:46.446Z,974.97
2022-12-02T06:36:46.430Z,974.96
2022-12-02T06:37:46.439Z,975.03
2022-12-02T06:38:46.410Z,974.96
2022-12-02T06:40:19.468Z,975.01
2022-12-02T06:40:48.355Z,974.98
2022-12-02T06:41:46.336Z,974.99
2022-12-02T06:42:46.352Z,975.06
2022-12-02T06:43:46.307Z,975.00
2022-12-02T06:44:46.297Z,975.02
2022-12-02T06:45:46.323Z,974.96
2022-12-02T06:46:46.264Z,974.89
2022-12-02T06:47:46.269Z,974.96
2022-12-02T06:48:46.220Z,974.95
2022-12-02T06:49:46.201Z,974.88
2022-12-02T06:50:46.187Z,974.91
2022-12-02T06:51:46.165Z,974.95
2022-12-02T06:52:46.198Z,974.95
2022-12-02T06:53:46.160Z,974.98
2022-12-02T06:54:46.120Z,974.97
2022-12-02T06:55:46.114Z,974.94
2022-12-02T06:56:46.075Z,975.00
2022-12-02T06:57:46.090Z,974.91
2022-12-02T06:58:46.043Z,974.97
2022-12-02T06:59:46.032Z,974.96
2022-12-02T07:00:46.091Z,974.93
2022-12-02T07:01:46.052Z,974.97
2022-12-02T07:02:46.065Z,974.99
2022-12-02T07:03:45.987Z,974.97
2022-12-02T07:04:45.946Z,974.98
2022-12-02T07:05:45.930Z,974.99
2022-12-02T07:06:45.908Z,974.92
2022-12-02T07:07:45.948Z,974.95
2022-12-02T07:08:45.869Z,975.00
2022-12-02T07:09:45.854Z,975.00
2022-12-02T07:10:45.834Z,974.96
2022-12-02T07:11:45.816Z,975.03
2022-12-02T07:12:45.830Z,975.03
2022-12-02T07:13:45.779Z,975.00
2022-12-02T07:14:45.790Z,975.01
2022-12-02T07:15:45.764Z,974.94
2022-12-02T07:16:45.852Z,974.99
2022-12-02T07:17:45.737Z,974.96
2022-12-02T07:18:46.758Z,975.00
2022-12-02T07:19:45.690Z,975.01
2022-12-02T07:20:45.682Z,974.97
2022-12-02T07:21:50.310Z,974.98
2022-12-02T07:22:47.659Z,974.97
2022-12-02T07:23:45.608Z,974.99
2022-12-02T07:24:45.591Z,975.05
2022-12-02T07:25:46.593Z,974.97
2022-12-02T07:26:45.561Z,974.99
2022-12-02T07:27:45.575Z,975.02
2022-12-02T07:28:45.570Z,974.89
2022-12-02T07:29:45.500Z,975.00
2022-12-02T07:30:45.533Z,975.05
2022-12-02T07:31:45.480Z,974.95
2022-12-02T07:32:45.492Z,974.99
2022-12-02T07:33:45.507Z,974.98
2022-12-02T07:34:45.415Z,975.04
2022-12-02T07:35:45.416Z,974.97
2022-12-02T07:36:45.430Z,974.95
2022-12-02T07:37:45.387Z,975.09
2022-12-02T07:39:47.341Z,974.99
2022-12-02T07:40:45.307Z,975.03
2022-12-02T07:41:45.307Z,975.06
2022-12-02T07:42:45.319Z,975.06
2022-12-02T07:43:45.268Z,975.08
2022-12-02T07:44:45.288Z,974.99
2022-12-02T07:45:45.275Z,975.00
2022-12-02T07:46:45.238Z,975.00
2022-12-02T07:47:45.216Z,974.99
2022-12-02T07:48:45.186Z,974.95
2022-12-02T07:49:45.157Z,974.99
2022-12-02T07:50:45.159Z,975.01
2022-12-02T07:51:45.139Z,974.98
2022-12-02T07:52:45.134Z,975.00
2022-12-02T07:53:45.098Z,975.06
2022-12-02T07:54:45.061Z,975.00
2022-12-02T07:55:45.047Z,975.05
2022-12-02T07:56:45.023Z,975.04
2022-12-02T07:57:45.040Z,975.00
2022-12-02T07:59:10.786Z,975.00
2022-12-02T07:59:46.979Z,975.04
2022-12-02T08:00:44.963Z,974.99
2022-12-02T08:01:44.960Z,975.00
2022-12-02T08:02:44.945Z,975.01
2022-12-02T08:03:44.908Z,975.02
2022-12-02T08:04:44.942Z,974.99
2022-12-02T08:05:44.882Z,975.10
2022-12-02T08:06:44.872Z,975.00
2022-12-02T08:07:44.912Z,975.04
2022-12-02T08:08:44.827Z,975.03
2022-12-02T08:09:44.801Z,975.02
2022-12-02T08:10:44.792Z,975.08
2022-12-02T08:11:44.797Z,975.05
2022-12-02T08:12:44.780Z,975.03
2022-12-02T08:13:44.740Z,975.04
2022-12-02T08:14:44.727Z,975.10
2022-12-02T08:15:46.737Z,975.06
2022-12-02T08:16:44.709Z,975.03
2022-12-02T08:17:44.911Z,975.02
2022-12-02T08:18:44.700Z,975.08
2022-12-02T08:19:44.638Z,975.03
2022-12-02T08:20:44.612Z,975.05
2022-12-02T08:21:44.589Z,975.02
2022-12-02T08:22:44.616Z,975.05
2022-12-02T08:23:44.573Z,975.06
2022-12-02T08:24:44.539Z,974.96
2022-12-02T08:25:44.534Z,975.01
2022-12-02T08:26:44.498Z,975.01
2022-12-02T08:27:45.631Z,974.98
2022-12-02T08:28:47.292Z,975.00
2022-12-02T08:29:45.535Z,974.95
2022-12-02T08:30:44.505Z,974.94
2022-12-02T08:31:44.419Z,974.97
2022-12-02T08:32:44.436Z,974.94
2022-12-02T08:33:44.382Z,975.02
2022-12-02T08:34:44.359Z,974.98
2022-12-02T08:35:44.347Z,974.98
2022-12-02T08:36:44.329Z,974.89
2022-12-02T08:37:44.338Z,974.95
2022-12-02T08:38:44.312Z,974.98
2022-12-02T08:39:44.291Z,974.92
2022-12-02T08:40:44.335Z,974.92
2022-12-02T08:41:44.234Z,974.95
2022-12-02T08:42:44.257Z,974.95
2022-12-02T08:43:44.233Z,974.97
2022-12-02T08:44:44.193Z,975.03
2022-12-02T08:45:44.170Z,974.97
2022-12-02T08:46:46.238Z,974.89
2022-12-02T08:47:45.176Z,975.01
2022-12-02T08:48:44.142Z,974.93
2022-12-02T08:49:44.100Z,975.01
2022-12-02T08:50:44.096Z,975.04
2022-12-02T08:51:44.073Z,974.94
2022-12-02T08:52:44.082Z,975.07
2022-12-02T08:53:44.036Z,974.97
2022-12-02T08:54:44.051Z,975.04
2022-12-02T08:55:44.053Z,974.88
2022-12-02T08:56:43.990Z,974.93
2022-12-02T08:57:43.992Z,974.97
2022-12-02T08:58:43.943Z,974.97
2022-12-02T08:59:43.922Z,974.91
2022-12-02T09:00:43.913Z,974.94
2022-12-02T09:01:43.999Z,974.91
2022-12-02T09:02:43.888Z,974.93
2022-12-02T09:03:43.888Z,974.94
2022-12-02T09:04:43.886Z,974.91
2022-12-02T09:05:43.829Z,974.93
2022-12-02T09:06:43.797Z,974.91
2022-12-02T09:07:43.823Z,974.89
2022-12-02T09:08:43.887Z,974.86
2022-12-02T09:09:43.754Z,974.90
2022-12-02T09:10:43.918Z,974.95
2022-12-02T09:11:43.771Z,974.90
2022-12-02T09:12:43.688Z,974.94
2022-12-02T09:13:43.715Z,974.94
2022-12-02T09:14:43.660Z,974.93
2022-12-02T09:15:43.773Z,974.92
2022-12-02T09:16:43.627Z,974.97
2022-12-02T09:17:43.615Z,974.96
2022-12-02T09:18:43.622Z,974.97
2022-12-02T09:19:43.571Z,974.97
2022-12-02T09:20:43.601Z,974.96
2022-12-02T09:21:43.551Z,974.96
2022-12-02T09:22:43.535Z,974.93
2022-12-02T09:23:48.947Z,974.94
2022-12-02T09:24:45.492Z,974.95
2022-12-02T09:25:43.476Z,974.95
2022-12-02T09:26:43.457Z,974.90
2022-12-02T09:27:43.445Z,974.94
2022-12-02T09:28:43.447Z,974.96
2022-12-02T09:29:43.440Z,974.97
2022-12-02T09:30:43.453Z,974.98
2022-12-02T09:31:44.377Z,974.88
2022-12-02T09:32:43.408Z,974.95
2022-12-02T09:33:43.373Z,974.96
2022-12-02T09:34:43.318Z,974.93
2022-12-02T09:35:43.291Z,975.03
2022-12-02T09:36:43.371Z,974.94
2022-12-02T09:37:43.298Z,974.92
2022-12-02T09:38:43.294Z,974.79
2022-12-02T09:39:43.222Z,974.90
2022-12-02T09:40:43.274Z,974.92
2022-12-02T09:41:43.191Z,974.93
2022-12-02T09:42:43.178Z,974.91
2022-12-02T09:43:43.192Z,974.88
2022-12-02T09:44:43.137Z,974.79
2022-12-02T09:45:43.128Z,974.87
2022-12-02T09:46:43.135Z,974.77
2022-12-02T09:47:43.097Z,974.80
2022-12-02T09:48:43.098Z,974.79
2022-12-02T09:49:43.066Z,974.91
2022-12-02T09:50:43.031Z,974.81
2022-12-02T09:51:43.094Z,974.80
2022-12-02T09:52:42.994Z,974.88
2022-12-02T09:53:43.016Z,974.81
2022-12-02T09:54:42.960Z,974.80
2022-12-02T09:55:42.949Z,974.81
2022-12-02T09:56:42.924Z,974.81
2022-12-02T09:57:42.923Z,974.85
2022-12-02T09:58:42.945Z,974.90
2022-12-02T09:59:42.877Z,974.78
2022-12-02T10:00:42.870Z,974.82
2022-12-02T10:01:42.898Z,974.76
2022-12-02T10:02:42.879Z,974.80
2022-12-02T10:03:42.839Z,974.78
2022-12-02T10:04:42.795Z,974.80
2022-12-02T10:05:42.760Z,974.75
2022-12-02T10:06:43.749Z,974.78
2022-12-02T10:07:42.876Z,974.73
2022-12-02T10:08:42.745Z,974.77
2022-12-02T10:09:42.699Z,974.82
2022-12-02T10:10:42.705Z,974.73
2022-12-02T10:11:42.671Z,974.74
2022-12-02T10:12:42.650Z,974.78
2022-12-02T10:13:42.662Z,974.80
2022-12-02T10:14:42.618Z,974.72
2022-12-02T10:15:43.646Z,974.74
2022-12-02T10:16:42.643Z,974.81
2022-12-02T10:17:42.566Z,974.72
2022-12-02T10:18:42.582Z,974.76
2022-12-02T10:19:42.538Z,974.83
2022-12-02T10:20:42.517Z,974.66
2022-12-02T10:21:42.508Z,974.66
2022-12-02T10:22:42.482Z,974.69
2022-12-02T10:23:42.597Z,974.67
2022-12-02T10:24:42.444Z,974.66
2022-12-02T10:25:42.430Z,974.61
2022-12-02T10:26:42.429Z,974.58
2022-12-02T10:27:42.403Z,974.63
2022-12-02T10:28:42.404Z,974.62
2022-12-02T10:29:45.130Z,974.65
2022-12-02T10:30:43.338Z,974.63
2022-12-02T10:31:42.377Z,974.64
2022-12-02T10:32:42.305Z,974.54
2022-12-02T10:33:42.332Z,974.58
2022-12-02T10:34:42.284Z,974.62
2022-12-02T10:35:42.254Z,974.68
2022-12-02T10:36:42.244Z,974.58
2022-12-02T10:37:42.220Z,974.56
2022-12-02T10:38:42.225Z,974.60
2022-12-02T10:39:42.181Z,974.58
2022-12-02T10:40:42.171Z,974.58
2022-12-02T10:41:42.141Z,974.64
2022-12-02T10:42:42.153Z,974.51
2022-12-02T10:43:42.147Z,974.50
2022-12-02T10:44:42.104Z,974.47
2022-12-02T10:45:42.077Z,974.56
2022-12-02T10:46:42.151Z,974.54
2022-12-02T10:47:42.040Z,974.54
2022-12-02T10:48:42.064Z,974.57
2022-12-02T10:49:43.026Z,974.54
2022-12-02T10:50:42.027Z,974.48
2022-12-02T10:51:41.972Z,974.53
2022-12-02T10:52:44.337Z,974.46
2022-12-02T10:53:42.978Z,974.53
2022-12-02T10:54:43.932Z,974.50
2022-12-02T10:55:42.904Z,974.50
2022-12-02T10:56:41.886Z,974.54
2022-12-02T10:57:41.879Z,974.53
2022-12-02T10:58:41.893Z,974.39
2022-12-02T10:59:41.844Z,974.52
2022-12-02T11:00:44.387Z,974.51
2022-12-02T11:01:42.907Z,974.52
2022-12-02T11:02:41.849Z,974.41
2022-12-02T11:03:41.800Z,974.40
2022-12-02T11:04:41.751Z,974.37
2022-12-02T11:05:41.735Z,974.33
2022-12-02T11:06:41.709Z,974.36
2022-12-02T11:07:41.779Z,974.32
2022-12-02T11:08:41.708Z,974.34
2022-12-02T11:09:41.796Z,974.31
2022-12-02T11:10:41.722Z,974.32
2022-12-02T11:11:41.646Z,974.47
2022-12-02T11:12:41.608Z,974.28
2022-12-02T11:13:47.693Z,974.24
2022-12-02T11:14:43.581Z,974.32
2022-12-02T11:15:41.558Z,974.31
2022-12-02T11:16:52.907Z,974.32
2022-12-02T11:17:43.599Z,974.37
2022-12-02T11:18:41.533Z,974.26
2022-12-02T11:19:41.504Z,974.32
2022-12-02T11:20:41.483Z,974.26
2022-12-02T11:21:41.451Z,974.43
2022-12-02T11:22:41.442Z,974.29
2022-12-02T11:23:41.453Z,974.29
2022-12-02T11:24:41.427Z,974.33
2022-12-02T11:25:41.372Z,974.27
2022-12-02T11:26:41.370Z,974.34
2022-12-02T11:27:41.340Z,974.30
2022-12-02T11:28:41.439Z,974.34
2022-12-02T11:29:41.311Z,974.34
2022-12-02T11:30:41.299Z,974.30
2022-12-02T11:31:41.292Z,974.33
2022-12-02T11:32:41.257Z,974.32
2022-12-02T11:33:41.265Z,974.32
2022-12-02T11:35:15.241Z,974.30
2022-12-02T11:35:43.234Z,974.34
2022-12-02T11:36:41.187Z,974.26
2022-12-02T11:37:41.190Z,974.24
2022-12-02T11:38:41.187Z,974.27
2022-12-02T11:39:42.175Z,974.27
2022-12-02T11:40:41.116Z,974.24
2022-12-02T11:41:41.100Z,974.26
2022-12-02T11:42:41.098Z,974.26
2022-12-02T11:43:41.115Z,974.24
2022-12-02T11:44:41.072Z,974.19
2022-12-02T11:45:41.078Z,974.23
2022-12-02T11:46:41.005Z,974.21
2022-12-02T11:47:41.006Z,974.22
2022-12-02T11:48:41.007Z,974.24
2022-12-02T11:49:40.995Z,974.21
2022-12-02T11:50:40.939Z,974.21
2022-12-02T11:51:40.924Z,974.19
2022-12-02T11:52:40.900Z,974.20
2022-12-02T11:53:40.947Z,974.17
2022-12-02T11:54:40.895Z,974.18
2022-12-02T11:55:40.854Z,974.11
2022-12-02T11:56:40.853Z,974.11
2022-12-02T11:57:40.813Z,974.15
2022-12-02T11:58:40.847Z,974.14
2022-12-02T11:59:40.783Z,974.19
2022-12-02T12:00:40.758Z,974.13
2022-12-02T12:01:40.735Z,974.17
2022-12-02T12:02:41.791Z,974.10
2022-12-02T12:03:40.798Z,974.10
2022-12-02T12:04:40.705Z,974.16
2022-12-02T12:05:40.687Z,974.14
2022-12-02T12:06:40.668Z,974.05
2022-12-02T12:07:40.672Z,974.08
2022-12-02T12:08:40.629Z,974.04
2022-12-02T12:09:40.670Z,974.07
2022-12-02T12:10:40.603Z,974.03
2022-12-02T12:11:40.571Z,974.03
2022-12-02T12:12:40.560Z,974.07
2022-12-02T12:13:40.536Z,974.01
2022-12-02T12:14:40.545Z,974.00
2022-12-02T12:15:40.497Z,974.08
2022-12-02T12:16:40.526Z,974.00
2022-12-02T12:17:40.591Z,973.98
2022-12-02T12:18:40.527Z,973.97
2022-12-02T12:19:40.463Z,974.11
2022-12-02T12:20:40.418Z,974.02
2022-12-02T12:21:40.388Z,973.99
2022-12-02T12:22:40.371Z,974.03
2022-12-02T12:23:40.353Z,974.02
2022-12-02T12:24:40.383Z,974.01
2022-12-02T12:25:40.322Z,973.89
2022-12-02T12:26:40.312Z,973.95
2022-12-02T12:27:40.352Z,974.00
2022-12-02T12:28:40.268Z,974.01
2022-12-02T12:29:40.284Z,973.99